Estación Meteorológica Peña el Pijo (Robertgarden) [ 02/03/23 04:49:41 CET ]

Fecha Hora Presion(HPa) Temp (°C) Humedad % Rocio (°C) Viento ( m/s) Direccion Lluvia 1Hora(mm) Lluvia 24H(mm) LLuvia Total(mm)
2010-Sep-04 01:01:13 1014.800 14.6 87 12.5       0.51 156.43
2010-Sep-04 02:01:14 1014.800 14.1 89 12.3       0.51 156.43
2010-Sep-04 03:01:17 1014.500 13.4 90 11.8         156.43
2010-Sep-04 04:01:14 1014.100 12.7 90 11.1         156.43
2010-Sep-04 05:01:15 1014.100 12.1 91 10.7         156.43
2010-Sep-04 06:01:20 1013.800 12.1 92 10.8         156.43
2010-Sep-04 07:01:17 1013.900 11.4 92 10.1         156.43
2010-Sep-04 08:01:16 1014.000 11.0 92 9.7         156.43
2010-Sep-04 09:01:14 1014.500 14.3 94 13.3         156.43
2010-Sep-04 10:01:18 1014.500 19.9 76 15.6         156.43
2010-Sep-04 11:01:14 1014.600 25.4 53 15.1         156.43
2010-Sep-04 12:01:15 1014.700 28.9 37 12.7         156.43
2010-Sep-04 13:01:18 1014.100 29.8 33 11.7         156.43
2010-Sep-04 14:01:18 1013.500 31.3 31 12.1         156.43
2010-Sep-04 15:01:15 1013.100 32.8 27 11.2         156.43
2010-Sep-04 16:01:16 1012.500 31.1 28 10.3         156.43
2010-Sep-04 17:01:30 1012.200 30.3 30 10.8         156.43
2010-Sep-04 18:01:31 1012.200 30.4 30 10.9         156.43
2010-Sep-04 19:01:38 1012.200 27.4 35 10.1         156.43
2010-Sep-04 20:01:30 1012.300 24.5 41 10.4         156.43
2010-Sep-04 21:01:17 1012.800 22.2 55 12.7         156.43
2010-Sep-04 22:01:21 1013.700 19.5 64 12.2         156.43
2010-Sep-04 23:01:19 1014.100 17.2 72 12.1         156.43

Temperatura Máxima:32°    Temperatura Mínima:11°
Presión Máxima:1014.800 Hpa    Presión Mínima:1012.200 Hpa


Volver